sensor_id;sensor_type;location;lat;lon;timestamp;P1;P2;P0
62547;PMS7003;48602;45.192;5.722;2023-07-22T00:01:57;5.50;5.50;5.00
62547;PMS7003;48602;45.192;5.722;2023-07-22T00:04:22;6.75;5.50;4.00
62547;PMS7003;48602;45.192;5.722;2023-07-22T00:06:48;7.25;4.00;4.00
62547;PMS7003;48602;45.192;5.722;2023-07-22T00:09:13;6.00;5.50;5.00
62547;PMS7003;48602;45.192;5.722;2023-07-22T00:11:38;5.75;5.50;5.00
62547;PMS7003;48602;45.192;5.722;2023-07-22T00:14:04;5.50;2.50;2.50
62547;PMS7003;48602;45.192;5.722;2023-07-22T00:16:31;4.75;4.75;4.00
62547;PMS7003;48602;45.192;5.722;2023-07-22T00:18:57;3.75;3.75;2.75
62547;PMS7003;48602;45.192;5.722;2023-07-22T00:21:22;4.50;4.50;3.50
62547;PMS7003;48602;45.192;5.722;2023-07-22T00:23:47;5.25;4.75;4.25
62547;PMS7003;48602;45.192;5.722;2023-07-22T00:26:13;4.50;4.25;3.50
62547;PMS7003;48602;45.192;5.722;2023-07-22T00:28:39;6.75;6.00;5.50
62547;PMS7003;48602;45.192;5.722;2023-07-22T00:31:04;5.50;4.50;3.25
62547;PMS7003;48602;45.192;5.722;2023-07-22T00:33:29;5.25;5.25;5.00
62547;PMS7003;48602;45.192;5.722;2023-07-22T00:35:55;6.25;5.50;5.00
62547;PMS7003;48602;45.192;5.722;2023-07-22T00:38:21;6.60;6.60;6.00
62547;PMS7003;48602;45.192;5.722;2023-07-22T00:40:46;3.75;3.75;3.00
62547;PMS7003;48602;45.192;5.722;2023-07-22T00:43:12;6.00;4.00;4.00
62547;PMS7003;48602;45.192;5.722;2023-07-22T00:45:37;5.50;4.00;3.50
62547;PMS7003;48602;45.192;5.722;2023-07-22T00:48:03;4.00;4.00;4.00
62547;PMS7003;48602;45.192;5.722;2023-07-22T00:50:30;3.60;3.60;3.20
62547;PMS7003;48602;45.192;5.722;2023-07-22T00:52:56;1.00;1.00;1.00
62547;PMS7003;48602;45.192;5.722;2023-07-22T00:55:22;4.00;3.50;3.25
62547;PMS7003;48602;45.192;5.722;2023-07-22T00:57:48;4.00;4.00;3.25
62547;PMS7003;48602;45.192;5.722;2023-07-22T01:00:13;4.00;4.00;4.00
62547;PMS7003;48602;45.192;5.722;2023-07-22T01:02:41;4.25;4.25;3.25
62547;PMS7003;48602;45.192;5.722;2023-07-22T01:05:08;5.75;5.00;4.75
62547;PMS7003;48602;45.192;5.722;2023-07-22T01:07:35;4.00;4.00;3.80
62547;PMS7003;48602;45.192;5.722;2023-07-22T01:10:01;7.40;5.60;5.00
62547;PMS7003;48602;45.192;5.722;2023-07-22T01:12:26;4.00;4.00;3.50
62547;PMS7003;48602;45.192;5.722;2023-07-22T01:14:52;3.75;3.25;3.00
62547;PMS7003;48602;45.192;5.722;2023-07-22T01:17:17;4.00;4.00;3.25
62547;PMS7003;48602;45.192;5.722;2023-07-22T01:19:44;5.20;5.20;4.40
62547;PMS7003;48602;45.192;5.722;2023-07-22T01:22:09;4.50;4.50;4.00
62547;PMS7003;48602;45.192;5.722;2023-07-22T01:24:36;7.00;5.50;5.00
62547;PMS7003;48602;45.192;5.722;2023-07-22T01:27:03;5.25;4.25;4.00
62547;PMS7003;48602;45.192;5.722;2023-07-22T01:29:29;5.00;5.00;4.60
62547;PMS7003;48602;45.192;5.722;2023-07-22T01:31:55;3.00;3.00;2.00
62547;PMS7003;48602;45.192;5.722;2023-07-22T01:34:21;5.75;5.75;5.00
62547;PMS7003;48602;45.192;5.722;2023-07-22T01:36:47;3.20;3.20;3.20
62547;PMS7003;48602;45.192;5.722;2023-07-22T01:39:14;4.80;4.80;3.40
62547;PMS7003;48602;45.192;5.722;2023-07-22T01:41:40;4.00;4.00;3.20
62547;PMS7003;48602;45.192;5.722;2023-07-22T01:44:06;9.00;6.50;5.25
62547;PMS7003;48602;45.192;5.722;2023-07-22T01:46:32;7.80;6.80;6.00
62547;PMS7003;48602;45.192;5.722;2023-07-22T01:48:58;6.00;4.75;4.25
62547;PMS7003;48602;45.192;5.722;2023-07-22T01:51:23;4.75;4.75;3.75
62547;PMS7003;48602;45.192;5.722;2023-07-22T01:53:49;6.00;4.00;3.25
62547;PMS7003;48602;45.192;5.722;2023-07-22T01:56:14;5.50;4.25;4.25
62547;PMS7003;48602;45.192;5.722;2023-07-22T01:58:41;4.40;2.00;2.00
62547;PMS7003;48602;45.192;5.722;2023-07-22T02:01:07;5.75;4.75;4.50
62547;PMS7003;48602;45.192;5.722;2023-07-22T02:03:32;5.00;4.00;3.25
62547;PMS7003;48602;45.192;5.722;2023-07-22T02:06:04;4.50;4.50;4.00
62547;PMS7003;48602;45.192;5.722;2023-07-22T02:08:29;6.20;5.20;4.20
62547;PMS7003;48602;45.192;5.722;2023-07-22T02:11:00;6.00;5.00;4.75
62547;PMS7003;48602;45.192;5.722;2023-07-22T02:13:26;5.00;4.00;4.00
62547;PMS7003;48602;45.192;5.722;2023-07-22T02:15:53;6.00;5.00;4.00
62547;PMS7003;48602;45.192;5.722;2023-07-22T02:18:19;5.80;4.00;3.40
62547;PMS7003;48602;45.192;5.722;2023-07-22T02:20:44;5.25;3.00;2.75
62547;PMS7003;48602;45.192;5.722;2023-07-22T02:23:09;5.00;5.00;4.50
62547;PMS7003;48602;45.192;5.722;2023-07-22T02:25:35;5.25;5.25;4.00
62547;PMS7003;48602;45.192;5.722;2023-07-22T02:28:01;5.75;5.25;5.00
62547;PMS7003;48602;45.192;5.722;2023-07-22T02:30:26;6.00;5.00;5.00
62547;PMS7003;48602;45.192;5.722;2023-07-22T02:32:52;5.00;5.00;4.00
62547;PMS7003;48602;45.192;5.722;2023-07-22T02:35:17;7.25;5.00;5.00
62547;PMS7003;48602;45.192;5.722;2023-07-22T02:37:42;4.50;4.00;3.75
62547;PMS7003;48602;45.192;5.722;2023-07-22T02:40:08;6.00;6.00;5.25
62547;PMS7003;48602;45.192;5.722;2023-07-22T02:42:36;4.20;4.20;3.00
62547;PMS7003;48602;45.192;5.722;2023-07-22T02:45:01;7.00;5.75;4.75
62547;PMS7003;48602;45.192;5.722;2023-07-22T02:47:29;6.60;4.80;4.00
62547;PMS7003;48602;45.192;5.722;2023-07-22T02:49:54;5.00;5.00;4.00
62547;PMS7003;48602;45.192;5.722;2023-07-22T02:52:19;6.00;6.00;5.00
62547;PMS7003;48602;45.192;5.722;2023-07-22T02:55:03;4.00;4.00;4.00
62547;PMS7003;48602;45.192;5.722;2023-07-22T02:57:30;5.20;5.20;5.20
62547;PMS7003;48602;45.192;5.722;2023-07-22T02:59:56;5.25;5.00;4.75
62547;PMS7003;48602;45.192;5.722;2023-07-22T03:02:21;4.00;4.00;3.00
62547;PMS7003;48602;45.192;5.722;2023-07-22T03:04:47;5.25;4.00;4.00
62547;PMS7003;48602;45.192;5.722;2023-07-22T03:07:12;6.75;5.00;4.00
62547;PMS7003;48602;45.192;5.722;2023-07-22T03:09:38;3.25;3.25;3.00
62547;PMS7003;48602;45.192;5.722;2023-07-22T03:12:03;4.00;3.00;2.50
62547;PMS7003;48602;45.192;5.722;2023-07-22T03:14:29;4.75;4.75;4.25
62547;PMS7003;48602;45.192;5.722;2023-07-22T03:16:54;5.00;5.00;4.50
62547;PMS7003;48602;45.192;5.722;2023-07-22T03:19:19;4.25;4.00;3.50
62547;PMS7003;48602;45.192;5.722;2023-07-22T03:21:45;5.00;5.00;4.00
62547;PMS7003;48602;45.192;5.722;2023-07-22T03:24:10;5.00;4.00;4.00
62547;PMS7003;48602;45.192;5.722;2023-07-22T03:26:35;4.50;4.50;4.00
62547;PMS7003;48602;45.192;5.722;2023-07-22T03:29:01;4.75;4.50;4.00
62547;PMS7003;48602;45.192;5.722;2023-07-22T03:31:26;5.00;4.25;4.00
62547;PMS7003;48602;45.192;5.722;2023-07-22T03:33:52;6.50;5.50;4.75
62547;PMS7003;48602;45.192;5.722;2023-07-22T03:36:17;8.25;5.50;5.00
62547;PMS7003;48602;45.192;5.722;2023-07-22T03:38:42;10.00;6.00;5.00
62547;PMS7003;48602;45.192;5.722;2023-07-22T03:41:08;5.50;4.50;4.00
62547;PMS7003;48602;45.192;5.722;2023-07-22T03:43:33;5.75;5.75;5.00
62547;PMS7003;48602;45.192;5.722;2023-07-22T03:45:59;7.00;5.75;4.75
62547;PMS7003;48602;45.192;5.722;2023-07-22T03:48:24;5.00;5.00;4.75
62547;PMS7003;48602;45.192;5.722;2023-07-22T03:50:50;5.00;5.00;4.75
62547;PMS7003;48602;45.192;5.722;2023-07-22T03:53:16;5.75;4.00;4.00
62547;PMS7003;48602;45.192;5.722;2023-07-22T03:55:41;4.00;4.00;4.00
62547;PMS7003;48602;45.192;5.722;2023-07-22T03:58:06;7.50;7.00;6.00
62547;PMS7003;48602;45.192;5.722;2023-07-22T04:00:32;6.00;6.00;5.00
62547;PMS7003;48602;45.192;5.722;2023-07-22T04:02:57;7.50;6.00;5.00
62547;PMS7003;48602;45.192;5.722;2023-07-22T04:05:22;6.00;6.00;6.00
62547;PMS7003;48602;45.192;5.722;2023-07-22T04:07:48;8.50;5.75;5.00
62547;PMS7003;48602;45.192;5.722;2023-07-22T04:10:13;7.25;6.50;5.00
62547;PMS7003;48602;45.192;5.722;2023-07-22T04:12:38;5.75;5.00;4.00
62547;PMS7003;48602;45.192;5.722;2023-07-22T04:15:04;5.75;4.75;4.00
62547;PMS7003;48602;45.192;5.722;2023-07-22T04:17:30;6.75;6.75;6.00
62547;PMS7003;48602;45.192;5.722;2023-07-22T04:19:56;5.00;5.00;4.75
62547;PMS7003;48602;45.192;5.722;2023-07-22T04:22:21;6.00;6.00;5.00
62547;PMS7003;48602;45.192;5.722;2023-07-22T04:24:47;9.00;7.00;5.00
62547;PMS7003;48602;45.192;5.722;2023-07-22T04:27:14;6.00;6.00;5.25
62547;PMS7003;48602;45.192;5.722;2023-07-22T04:29:40;6.00;4.75;4.25
62547;PMS7003;48602;45.192;5.722;2023-07-22T04:32:06;6.75;5.25;5.00
62547;PMS7003;48602;45.192;5.722;2023-07-22T04:34:33;5.40;5.40;5.20
62547;PMS7003;48602;45.192;5.722;2023-07-22T04:36:59;7.00;5.50;5.00
62547;PMS7003;48602;45.192;5.722;2023-07-22T04:39:24;6.00;6.00;5.00
62547;PMS7003;48602;45.192;5.722;2023-07-22T04:41:50;5.00;5.00;4.25
62547;PMS7003;48602;45.192;5.722;2023-07-22T04:44:16;7.75;7.00;5.50
62547;PMS7003;48602;45.192;5.722;2023-07-22T04:46:42;7.00;6.00;6.00
62547;PMS7003;48602;45.192;5.722;2023-07-22T04:49:07;5.25;5.00;4.25
62547;PMS7003;48602;45.192;5.722;2023-07-22T04:51:33;8.25;6.00;5.00
62547;PMS7003;48602;45.192;5.722;2023-07-22T04:53:58;6.00;6.00;4.25
62547;PMS7003;48602;45.192;5.722;2023-07-22T04:56:24;6.50;6.50;6.00
62547;PMS7003;48602;45.192;5.722;2023-07-22T04:58:49;5.75;5.00;3.50
62547;PMS7003;48602;45.192;5.722;2023-07-22T05:01:15;4.00;4.00;3.50
62547;PMS7003;48602;45.192;5.722;2023-07-22T05:03:40;7.00;7.00;5.00
62547;PMS7003;48602;45.192;5.722;2023-07-22T05:06:06;5.75;5.75;4.50
62547;PMS7003;48602;45.192;5.722;2023-07-22T05:08:33;4.00;4.00;3.00
62547;PMS7003;48602;45.192;5.722;2023-07-22T05:10:58;5.25;5.25;5.00
62547;PMS7003;48602;45.192;5.722;2023-07-22T05:13:24;6.75;6.50;6.00
62547;PMS7003;48602;45.192;5.722;2023-07-22T05:15:49;7.50;5.00;4.50
62547;PMS7003;48602;45.192;5.722;2023-07-22T05:18:14;5.00;5.00;4.75
62547;PMS7003;48602;45.192;5.722;2023-07-22T05:20:40;6.00;6.00;5.00
62547;PMS7003;48602;45.192;5.722;2023-07-22T05:23:05;5.00;5.00;4.00
62547;PMS7003;48602;45.192;5.722;2023-07-22T05:25:31;6.75;4.00;4.00
62547;PMS7003;48602;45.192;5.722;2023-07-22T05:27:56;2.00;2.00;2.00
62547;PMS7003;48602;45.192;5.722;2023-07-22T05:30:21;7.25;5.50;5.00
62547;PMS7003;48602;45.192;5.722;2023-07-22T05:32:47;5.75;5.00;4.25
62547;PMS7003;48602;45.192;5.722;2023-07-22T05:35:12;4.75;4.75;4.75
62547;PMS7003;48602;45.192;5.722;2023-07-22T05:37:37;4.75;4.75;4.00
62547;PMS7003;48602;45.192;5.722;2023-07-22T05:40:03;5.00;5.00;4.75
62547;PMS7003;48602;45.192;5.722;2023-07-22T05:42:29;5.25;5.25;5.00
62547;PMS7003;48602;45.192;5.722;2023-07-22T05:44:54;8.25;6.50;6.00
62547;PMS7003;48602;45.192;5.722;2023-07-22T05:47:21;11.00;6.75;5.00
62547;PMS7003;48602;45.192;5.722;2023-07-22T05:49:46;5.50;4.00;4.00
62547;PMS7003;48602;45.192;5.722;2023-07-22T05:52:12;7.50;7.00;6.00
62547;PMS7003;48602;45.192;5.722;2023-07-22T05:54:37;5.00;4.00;4.00
62547;PMS7003;48602;45.192;5.722;2023-07-22T05:57:03;6.75;5.25;4.75
62547;PMS7003;48602;45.192;5.722;2023-07-22T05:59:29;5.25;5.25;5.00
62547;PMS7003;48602;45.192;5.722;2023-07-22T06:01:55;5.00;5.00;4.20
62547;PMS7003;48602;45.192;5.722;2023-07-22T06:04:21;3.20;3.20;3.00
62547;PMS7003;48602;45.192;5.722;2023-07-22T06:06:46;6.50;4.75;4.00
62547;PMS7003;48602;45.192;5.722;2023-07-22T06:09:12;6.75;6.00;5.00
62547;PMS7003;48602;45.192;5.722;2023-07-22T06:11:37;7.50;5.75;4.50
62547;PMS7003;48602;45.192;5.722;2023-07-22T06:14:02;8.00;7.00;6.00
62547;PMS7003;48602;45.192;5.722;2023-07-22T06:16:28;7.50;6.50;5.00
62547;PMS7003;48602;45.192;5.722;2023-07-22T06:18:53;5.75;5.75;5.00
62547;PMS7003;48602;45.192;5.722;2023-07-22T06:21:18;4.50;4.50;4.50
62547;PMS7003;48602;45.192;5.722;2023-07-22T06:23:44;7.50;7.50;6.25
62547;PMS7003;48602;45.192;5.722;2023-07-22T06:26:09;7.00;6.75;6.00
62547;PMS7003;48602;45.192;5.722;2023-07-22T06:28:34;6.50;5.50;5.25
62547;PMS7003;48602;45.192;5.722;2023-07-22T06:31:00;6.50;5.00;4.00
62547;PMS7003;48602;45.192;5.722;2023-07-22T06:33:25;7.00;7.00;6.25
62547;PMS7003;48602;45.192;5.722;2023-07-22T06:35:51;7.00;6.00;5.00
62547;PMS7003;48602;45.192;5.722;2023-07-22T06:38:16;5.00;5.00;4.50
62547;PMS7003;48602;45.192;5.722;2023-07-22T06:40:41;7.50;7.50;6.00
62547;PMS7003;48602;45.192;5.722;2023-07-22T06:43:07;6.25;6.00;4.75
62547;PMS7003;48602;45.192;5.722;2023-07-22T06:45:32;5.25;5.25;5.00
62547;PMS7003;48602;45.192;5.722;2023-07-22T06:47:58;6.50;6.00;5.50
62547;PMS7003;48602;45.192;5.722;2023-07-22T06:50:24;7.75;6.75;6.00
62547;PMS7003;48602;45.192;5.722;2023-07-22T06:52:49;5.25;5.25;4.25
62547;PMS7003;48602;45.192;5.722;2023-07-22T06:55:14;4.00;2.75;2.50
62547;PMS7003;48602;45.192;5.722;2023-07-22T06:57:40;6.00;6.00;5.50
62547;PMS7003;48602;45.192;5.722;2023-07-22T07:00:06;6.25;5.25;5.00
62547;PMS7003;48602;45.192;5.722;2023-07-22T07:02:32;7.00;6.25;5.00
62547;PMS7003;48602;45.192;5.722;2023-07-22T07:04:57;7.25;6.50;5.25
62547;PMS7003;48602;45.192;5.722;2023-07-22T07:07:23;6.50;6.50;5.25
62547;PMS7003;48602;45.192;5.722;2023-07-22T07:09:48;6.00;6.00;5.00
62547;PMS7003;48602;45.192;5.722;2023-07-22T07:12:13;7.00;6.00;4.75
62547;PMS7003;48602;45.192;5.722;2023-07-22T07:14:39;6.75;6.75;6.00
62547;PMS7003;48602;45.192;5.722;2023-07-22T07:17:04;6.75;6.75;6.00
62547;PMS7003;48602;45.192;5.722;2023-07-22T07:19:30;6.25;6.25;5.25
62547;PMS7003;48602;45.192;5.722;2023-07-22T07:21:55;5.00;5.00;3.00
62547;PMS7003;48602;45.192;5.722;2023-07-22T07:24:21;8.50;7.00;6.75
62547;PMS7003;48602;45.192;5.722;2023-07-22T07:26:46;5.50;5.50;4.00
62547;PMS7003;48602;45.192;5.722;2023-07-22T07:29:11;3.75;3.75;3.00
62547;PMS7003;48602;45.192;5.722;2023-07-22T07:31:37;6.75;6.75;5.50
62547;PMS7003;48602;45.192;5.722;2023-07-22T07:34:03;8.00;7.00;6.00
62547;PMS7003;48602;45.192;5.722;2023-07-22T07:36:29;7.75;7.75;6.50
62547;PMS7003;48602;45.192;5.722;2023-07-22T07:38:55;10.00;8.00;7.00
62547;PMS7003;48602;45.192;5.722;2023-07-22T07:41:20;6.00;6.00;5.75
62547;PMS7003;48602;45.192;5.722;2023-07-22T07:43:46;8.00;6.00;5.00
62547;PMS7003;48602;45.192;5.722;2023-07-22T07:46:32;7.25;6.50;5.00
62547;PMS7003;48602;45.192;5.722;2023-07-22T07:48:57;6.20;6.20;6.20
62547;PMS7003;48602;45.192;5.722;2023-07-22T07:51:25;9.80;8.40;6.80
62547;PMS7003;48602;45.192;5.722;2023-07-22T07:53:52;6.00;6.00;5.75
62547;PMS7003;48602;45.192;5.722;2023-07-22T07:56:18;10.60;8.40;7.00
62547;PMS7003;48602;45.192;5.722;2023-07-22T07:58:45;8.80;6.80;6.20
62547;PMS7003;48602;45.192;5.722;2023-07-22T08:01:11;6.80;6.80;6.00
62547;PMS7003;48602;45.192;5.722;2023-07-22T08:03:38;6.25;5.25;5.25
62547;PMS7003;48602;45.192;5.722;2023-07-22T08:06:04;7.60;6.80;6.00
62547;PMS7003;48602;45.192;5.722;2023-07-22T08:08:31;5.40;5.40;5.20
62547;PMS7003;48602;45.192;5.722;2023-07-22T08:11:00;6.25;6.25;5.00
62547;PMS7003;48602;45.192;5.722;2023-07-22T08:13:28;7.50;7.50;6.75
62547;PMS7003;48602;45.192;5.722;2023-07-22T08:15:56;8.00;8.00;7.00
62547;PMS7003;48602;45.192;5.722;2023-07-22T08:18:22;6.20;6.00;5.20
62547;PMS7003;48602;45.192;5.722;2023-07-22T08:20:48;8.00;8.00;5.75
62547;PMS7003;48602;45.192;5.722;2023-07-22T08:23:14;8.00;5.00;4.75
62547;PMS7003;48602;45.192;5.722;2023-07-22T08:25:40;6.50;5.75;5.00
62547;PMS7003;48602;45.192;5.722;2023-07-22T08:28:05;10.75;7.25;5.75
62547;PMS7003;48602;45.192;5.722;2023-07-22T08:30:30;4.25;4.25;4.00
62547;PMS7003;48602;45.192;5.722;2023-07-22T08:32:56;5.75;5.75;5.00
62547;PMS7003;48602;45.192;5.722;2023-07-22T08:35:22;5.75;5.50;5.00
62547;PMS7003;48602;45.192;5.722;2023-07-22T08:37:47;7.75;5.50;5.00
62547;PMS7003;48602;45.192;5.722;2023-07-22T08:40:13;7.75;7.00;6.00
62547;PMS7003;48602;45.192;5.722;2023-07-22T08:42:38;5.25;5.25;5.00
62547;PMS7003;48602;45.192;5.722;2023-07-22T08:45:05;4.80;4.80;4.20
62547;PMS7003;48602;45.192;5.722;2023-07-22T08:47:34;6.60;6.20;5.20
62547;PMS7003;48602;45.192;5.722;2023-07-22T08:50:02;8.00;7.00;6.80
62547;PMS7003;48602;45.192;5.722;2023-07-22T08:52:32;7.60;6.20;5.20
62547;PMS7003;48602;45.192;5.722;2023-07-22T08:54:59;7.00;6.40;4.60
62547;PMS7003;48602;45.192;5.722;2023-07-22T08:57:26;8.40;8.40;6.00
62547;PMS7003;48602;45.192;5.722;2023-07-22T08:59:54;7.80;7.40;6.40
62547;PMS7003;48602;45.192;5.722;2023-07-22T09:02:22;5.50;5.50;5.00
62547;PMS7003;48602;45.192;5.722;2023-07-22T09:04:49;7.40;7.40;5.60
62547;PMS7003;48602;45.192;5.722;2023-07-22T09:07:15;10.50;7.00;6.00
62547;PMS7003;48602;45.192;5.722;2023-07-22T09:09:42;6.60;5.60;5.00
62547;PMS7003;48602;45.192;5.722;2023-07-22T09:12:10;7.40;7.40;6.80
62547;PMS7003;48602;45.192;5.722;2023-07-22T09:14:37;6.20;6.00;5.00
62547;PMS7003;48602;45.192;5.722;2023-07-22T09:17:05;7.40;6.40;6.00
62547;PMS7003;48602;45.192;5.722;2023-07-22T09:19:31;6.20;4.80;4.20
62547;PMS7003;48602;45.192;5.722;2023-07-22T09:21:56;5.00;4.00;4.00
62547;PMS7003;48602;45.192;5.722;2023-07-22T09:24:24;6.60;4.00;4.00
62547;PMS7003;48602;45.192;5.722;2023-07-22T09:26:51;6.40;4.80;4.80
62547;PMS7003;48602;45.192;5.722;2023-07-22T09:29:16;4.00;4.00;3.25
62547;PMS7003;48602;45.192;5.722;2023-07-22T09:31:52;6.25;4.00;4.00
62547;PMS7003;48602;45.192;5.722;2023-07-22T09:34:19;5.00;5.00;4.20
62547;PMS7003;48602;45.192;5.722;2023-07-22T09:36:57;4.75;4.75;4.25
62547;PMS7003;48602;45.192;5.722;2023-07-22T09:39:28;3.40;3.40;3.00
62547;PMS7003;48602;45.192;5.722;2023-07-22T09:41:54;4.00;3.00;3.00
62547;PMS7003;48602;45.192;5.722;2023-07-22T09:44:20;5.25;3.00;3.00
62547;PMS7003;48602;45.192;5.722;2023-07-22T09:46:47;5.80;5.80;5.20
62547;PMS7003;48602;45.192;5.722;2023-07-22T09:49:13;4.00;4.00;3.60
62547;PMS7003;48602;45.192;5.722;2023-07-22T09:51:42;7.20;5.80;3.80
62547;PMS7003;48602;45.192;5.722;2023-07-22T09:54:08;3.50;3.50;2.75
62547;PMS7003;48602;45.192;5.722;2023-07-22T09:56:43;7.00;4.00;4.00
62547;PMS7003;48602;45.192;5.722;2023-07-22T09:59:13;3.00;2.40;0.80
62547;PMS7003;48602;45.192;5.722;2023-07-22T10:01:40;3.60;3.60;3.00
62547;PMS7003;48602;45.192;5.722;2023-07-22T10:04:06;5.00;4.60;4.40
62547;PMS7003;48602;45.192;5.722;2023-07-22T10:06:32;5.25;5.00;4.00
62547;PMS7003;48602;45.192;5.722;2023-07-22T10:09:02;2.80;2.80;2.20
62547;PMS7003;48602;45.192;5.722;2023-07-22T10:11:32;4.60;4.60;3.80
62547;PMS7003;48602;45.192;5.722;2023-07-22T10:13:58;4.80;4.40;3.80
62547;PMS7003;48602;45.192;5.722;2023-07-22T10:16:24;1.00;1.00;1.00
62547;PMS7003;48602;45.192;5.722;2023-07-22T10:18:50;4.00;4.00;3.20
62547;PMS7003;48602;45.192;5.722;2023-07-22T10:21:16;1.00;1.00;0.50
62547;PMS7003;48602;45.192;5.722;2023-07-22T10:23:42;2.80;2.80;2.40
62547;PMS7003;48602;45.192;5.722;2023-07-22T10:26:10;7.80;5.80;4.40
62547;PMS7003;48602;45.192;5.722;2023-07-22T10:28:39;4.00;4.00;3.00
62547;PMS7003;48602;45.192;5.722;2023-07-22T10:31:05;5.00;4.60;3.80
62547;PMS7003;48602;45.192;5.722;2023-07-22T10:33:31;2.75;2.75;2.00
62547;PMS7003;48602;45.192;5.722;2023-07-22T10:38:27;4.80;4.80;4.40
62547;PMS7003;48602;45.192;5.722;2023-07-22T10:40:54;1.00;1.00;1.00
62547;PMS7003;48602;45.192;5.722;2023-07-22T10:43:24;3.00;3.00;3.00
62547;PMS7003;48602;45.192;5.722;2023-07-22T10:45:50;7.00;5.80;5.00
62547;PMS7003;48602;45.192;5.722;2023-07-22T10:48:17;4.40;3.80;3.60
62547;PMS7003;48602;45.192;5.722;2023-07-22T10:50:47;4.40;3.20;3.00
62547;PMS7003;48602;45.192;5.722;2023-07-22T10:53:20;4.40;4.40;3.80
62547;PMS7003;48602;45.192;5.722;2023-07-22T10:58:33;3.80;3.80;3.80
62547;PMS7003;48602;45.192;5.722;2023-07-22T11:06:57;4.20;4.20;3.80
62547;PMS7003;48602;45.192;5.722;2023-07-22T11:14:30;6.60;5.80;5.20
62547;PMS7003;48602;45.192;5.722;2023-07-22T11:17:02;6.00;3.60;2.80
62547;PMS7003;48602;45.192;5.722;2023-07-22T11:19:29;5.00;3.60;3.40
62547;PMS7003;48602;45.192;5.722;2023-07-22T11:21:55;6.00;5.00;4.00
62547;PMS7003;48602;45.192;5.722;2023-07-22T11:24:22;4.25;3.75;3.00
62547;PMS7003;48602;45.192;5.722;2023-07-22T11:26:49;4.00;2.80;2.80
62547;PMS7003;48602;45.192;5.722;2023-07-22T11:29:15;2.80;2.80;2.40
62547;PMS7003;48602;45.192;5.722;2023-07-22T11:31:43;4.20;3.80;3.60
62547;PMS7003;48602;45.192;5.722;2023-07-22T11:34:14;3.20;2.80;2.80
62547;PMS7003;48602;45.192;5.722;2023-07-22T11:36:41;0.40;0.40;0.40
62547;PMS7003;48602;45.192;5.722;2023-07-22T11:39:08;2.80;2.80;2.80
62547;PMS7003;48602;45.192;5.722;2023-07-22T11:41:35;2.60;2.60;2.60
62547;PMS7003;48602;45.192;5.722;2023-07-22T11:44:03;3.00;3.00;2.80
62547;PMS7003;48602;45.192;5.722;2023-07-22T11:46:57;3.20;3.20;2.80
62547;PMS7003;48602;45.192;5.722;2023-07-22T11:49:31;2.80;1.80;1.80
62547;PMS7003;48602;45.192;5.722;2023-07-22T11:52:08;3.00;2.60;2.00
62547;PMS7003;48602;45.192;5.722;2023-07-22T11:54:37;3.00;3.00;2.80
62547;PMS7003;48602;45.192;5.722;2023-07-22T11:59:39;2.20;1.80;1.80
62547;PMS7003;48602;45.192;5.722;2023-07-22T12:02:11;3.80;3.80;3.20
62547;PMS7003;48602;45.192;5.722;2023-07-22T12:04:38;2.00;2.00;2.00
62547;PMS7003;48602;45.192;5.722;2023-07-22T12:07:04;2.40;1.80;1.80
62547;PMS7003;48602;45.192;5.722;2023-07-22T12:09:30;4.75;3.50;2.50
62547;PMS7003;48602;45.192;5.722;2023-07-22T12:11:57;2.80;1.60;1.60
62547;PMS7003;48602;45.192;5.722;2023-07-22T12:14:24;2.00;2.00;1.40
62547;PMS7003;48602;45.192;5.722;2023-07-22T12:16:52;3.00;2.60;2.20
62547;PMS7003;48602;45.192;5.722;2023-07-22T12:19:22;3.00;2.00;2.00
62547;PMS7003;48602;45.192;5.722;2023-07-22T12:21:47;2.25;1.25;1.00
62547;PMS7003;48602;45.192;5.722;2023-07-22T12:24:13;1.40;1.40;1.40
62547;PMS7003;48602;45.192;5.722;2023-07-22T12:26:39;1.20;1.20;0.60
62547;PMS7003;48602;45.192;5.722;2023-07-22T12:29:05;3.50;3.50;3.00
62547;PMS7003;48602;45.192;5.722;2023-07-22T12:31:30;5.00;2.75;1.75
62547;PMS7003;48602;45.192;5.722;2023-07-22T12:33:55;1.50;1.50;1.50
62547;PMS7003;48602;45.192;5.722;2023-07-22T12:36:21;1.75;1.50;0.50
62547;PMS7003;48602;45.192;5.722;2023-07-22T12:38:46;1.00;1.00;1.00
62547;PMS7003;48602;45.192;5.722;2023-07-22T12:41:12;1.00;1.00;1.00
62547;PMS7003;48602;45.192;5.722;2023-07-22T12:43:37;1.00;1.00;1.00
62547;PMS7003;48602;45.192;5.722;2023-07-22T12:46:02;3.75;2.00;2.00
62547;PMS7003;48602;45.192;5.722;2023-07-22T12:48:29;0.60;0.60;0.40
62547;PMS7003;48602;45.192;5.722;2023-07-22T12:50:55;3.00;1.50;1.50
62547;PMS7003;48602;45.192;5.722;2023-07-22T12:53:20;1.00;1.00;0.75
62547;PMS7003;48602;45.192;5.722;2023-07-22T12:55:46;1.75;1.50;1.50
62547;PMS7003;48602;45.192;5.722;2023-07-22T12:58:11;3.25;2.25;1.50
62547;PMS7003;48602;45.192;5.722;2023-07-22T13:00:36;2.25;2.25;1.75
62547;PMS7003;48602;45.192;5.722;2023-07-22T13:03:02;2.00;1.50;1.00
62547;PMS7003;48602;45.192;5.722;2023-07-22T13:05:27;0.00;0.00;0.00
62547;PMS7003;48602;45.192;5.722;2023-07-22T13:07:52;2.00;2.00;1.50
62547;PMS7003;48602;45.192;5.722;2023-07-22T13:10:18;0.00;0.00;0.00
62547;PMS7003;48602;45.192;5.722;2023-07-22T13:12:45;1.60;1.60;1.40
62547;PMS7003;48602;45.192;5.722;2023-07-22T13:15:10;1.25;1.25;1.25
62547;PMS7003;48602;45.192;5.722;2023-07-22T13:17:36;2.00;1.00;1.00
62547;PMS7003;48602;45.192;5.722;2023-07-22T13:20:02;0.00;0.00;0.00
62547;PMS7003;48602;45.192;5.722;2023-07-22T13:22:32;1.60;1.60;1.00
62547;PMS7003;48602;45.192;5.722;2023-07-22T13:24:57;1.50;1.50;1.50
62547;PMS7003;48602;45.192;5.722;2023-07-22T13:27:23;3.75;2.75;2.25
62547;PMS7003;48602;45.192;5.722;2023-07-22T13:29:48;0.50;0.50;0.50
62547;PMS7003;48602;45.192;5.722;2023-07-22T13:32:13;0.00;0.00;0.00
62547;PMS7003;48602;45.192;5.722;2023-07-22T13:34:39;1.00;1.00;1.00
62547;PMS7003;48602;45.192;5.722;2023-07-22T13:37:04;2.50;2.50;1.75
62547;PMS7003;48602;45.192;5.722;2023-07-22T13:39:30;1.40;1.40;0.80
62547;PMS7003;48602;45.192;5.722;2023-07-22T13:41:56;1.75;1.75;1.50
62547;PMS7003;48602;45.192;5.722;2023-07-22T13:44:21;2.00;2.00;1.50
62547;PMS7003;48602;45.192;5.722;2023-07-22T13:46:46;1.50;1.50;1.50
62547;PMS7003;48602;45.192;5.722;2023-07-22T13:49:12;1.80;1.00;0.00
62547;PMS7003;48602;45.192;5.722;2023-07-22T13:51:40;2.20;1.40;1.20
62547;PMS7003;48602;45.192;5.722;2023-07-22T13:54:06;2.50;1.50;1.50
62547;PMS7003;48602;45.192;5.722;2023-07-22T13:56:31;2.00;0.00;0.00
62547;PMS7003;48602;45.192;5.722;2023-07-22T13:58:56;1.00;1.00;1.00
62547;PMS7003;48602;45.192;5.722;2023-07-22T14:01:23;0.20;0.20;0.20
62547;PMS7003;48602;45.192;5.722;2023-07-22T14:03:48;2.25;1.00;1.00
62547;PMS7003;48602;45.192;5.722;2023-07-22T14:06:14;1.00;0.00;0.00
62547;PMS7003;48602;45.192;5.722;2023-07-22T14:08:39;1.00;1.00;1.00
62547;PMS7003;48602;45.192;5.722;2023-07-22T14:11:05;0.75;0.75;0.75
62547;PMS7003;48602;45.192;5.722;2023-07-22T14:13:30;2.00;2.00;1.25
62547;PMS7003;48602;45.192;5.722;2023-07-22T14:15:55;0.00;0.00;0.00
62547;PMS7003;48602;45.192;5.722;2023-07-22T14:18:21;0.50;0.50;0.50
62547;PMS7003;48602;45.192;5.722;2023-07-22T14:20:46;0.50;0.50;0.50
62547;PMS7003;48602;45.192;5.722;2023-07-22T14:23:11;0.00;0.00;0.00
62547;PMS7003;48602;45.192;5.722;2023-07-22T14:25:37;1.00;1.00;0.00
62547;PMS7003;48602;45.192;5.722;2023-07-22T14:28:03;1.50;1.00;1.00
62547;PMS7003;48602;45.192;5.722;2023-07-22T14:30:28;1.50;1.50;1.00
62547;PMS7003;48602;45.192;5.722;2023-07-22T14:32:54;1.00;1.00;1.00
62547;PMS7003;48602;45.192;5.722;2023-07-22T14:35:20;0.40;0.00;0.00
62547;PMS7003;48602;45.192;5.722;2023-07-22T14:37:46;1.00;1.00;1.00